Mappsville, Virginia
Current Conditions -  °F | °C
As of 8:54 AM on Saturday 25 Oct 2014 (Local Time) from KWAL Reporting Station
Clear Clear  
Wind Chill: 54°   Ceiling: Unl
Heat Index: 54°   Visibility: 10mi
Dew Point: 44°   Wind: 7mph
Humidity: 69%   Direction: 320°NW
Pressure: 29.97"   Gusts: NA
Location:  37.85°N, 75.57°W
Report Text: KWAL 251254Z AUTO 32006KT 10SM CLR 12/07 A2997 RMK AO2 SLP144 T01220067
Loading
Personal Weather Stations






























Interactive Weather Map
Tropical Storm Tracking
New forecast layout! Learn more

10-Day Weather Forecast

Advertisements
Track Severe Weather on mobile